Terminal Aerodrome Forecast
Issued by NWS

Home | Current Version | Previous Version | Text Only | Print | Product List | Glossary On
Versions: 1 2 3 4 5 6 7 8 9 10 11 12 13 14
000
FTAK31 PAJN 230101 AAA
TAFAGY
TAF AMD
PAGY 230101Z 2301/2324 21015KT P6SM -RA SCT025 OVC035
      TEMPO 2301/2305 BKN025
     FM230600 20008KT 6SM -RA BR SCT025 OVC035
      AMD LTD TO CLD VIS AND WIND=

USA.gov is the U.S. government's official web portal to all federal, state and local government web resources and services.